Resolute, Resolute Bay Airport (CYRB)

NameResolute Bay Airport
CityResolute
CountryCanada
ICAOCYRB
IATAYRB
Altitude68 m
CoordinatesGoogle Map
Live Air TrafficLiveATC.net
METARCYRB 140100Z 04010KT 7SM -SN SCT012 OVC016 M18/M20 A2987 RMK ST3SC5 SLP126
2019-11-14 01:00:00 Wind: North-Northeast (40°) 5.14 m/s - Visibility: 11265.38 m - Weather: Light Snow - Temperature: -18 °C - Dew point: -20 °C - Humidity: 84.5% - Pressure: 1011.51 hPa

Sorry, no flights used the airport in this database.